createdAt,value
2018-06-09T00:00:57.807Z,72.90
2018-06-09T00:03:26.799Z,73.06
2018-06-09T00:05:55.718Z,73.06
2018-06-09T00:08:24.599Z,72.83
2018-06-09T00:10:53.461Z,73.25
2018-06-09T00:13:22.345Z,72.96
2018-06-09T00:15:51.240Z,72.84
2018-06-09T00:18:20.147Z,72.54
2018-06-09T00:20:49.058Z,72.22
2018-06-09T00:23:18.008Z,72.49
2018-06-09T00:25:46.937Z,72.37
2018-06-09T00:28:15.864Z,72.17
2018-06-09T00:30:44.801Z,71.58
2018-06-09T00:33:13.713Z,71.89
2018-06-09T00:35:42.663Z,71.69
2018-06-09T00:38:11.582Z,71.57
2018-06-09T00:40:40.468Z,71.51
2018-06-09T00:43:09.403Z,71.57
2018-06-09T00:45:38.264Z,71.54
2018-06-09T00:48:07.138Z,71.42
2018-06-09T00:50:36.075Z,71.81
2018-06-09T00:53:04.990Z,71.75
2018-06-09T00:55:33.959Z,71.89
2018-06-09T00:58:02.858Z,71.74
2018-06-09T01:00:31.679Z,70.47
2018-06-09T01:03:00.597Z,71.45
2018-06-09T01:05:29.498Z,71.34
2018-06-09T01:07:58.426Z,71.62
2018-06-09T01:10:27.382Z,71.56
2018-06-09T01:12:56.179Z,71.46
2018-06-09T01:15:25.135Z,72.30
2018-06-09T01:17:54.093Z,72.16
2018-06-09T01:20:23.845Z,72.43
2018-06-09T01:22:52.745Z,72.00
2018-06-09T01:25:21.666Z,71.38
2018-06-09T01:27:50.576Z,71.96
2018-06-09T01:30:19.448Z,71.56
2018-06-09T01:32:48.420Z,71.91
2018-06-09T01:35:17.277Z,71.35
2018-06-09T01:37:46.160Z,71.62
2018-06-09T01:40:15.062Z,72.07
2018-06-09T01:42:43.967Z,71.81
2018-06-09T01:45:12.873Z,72.69
2018-06-09T01:47:41.754Z,72.80
2018-06-09T01:50:10.634Z,72.81
2018-06-09T01:52:39.543Z,72.56
2018-06-09T01:55:08.426Z,72.81
2018-06-09T01:57:37.397Z,71.80
2018-06-09T02:00:06.271Z,72.26
2018-06-09T02:02:35.223Z,71.98
2018-06-09T02:05:04.155Z,71.77
2018-06-09T02:07:33.086Z,71.71
2018-06-09T02:10:01.979Z,72.02
2018-06-09T02:12:30.849Z,71.69
2018-06-09T02:14:59.740Z,72.07
2018-06-09T02:17:28.628Z,72.11
2018-06-09T02:19:57.560Z,72.45
2018-06-09T02:22:26.435Z,72.64
2018-06-09T02:24:55.251Z,72.04
2018-06-09T02:27:24.154Z,73.17
2018-06-09T02:29:53.073Z,72.83
2018-06-09T02:32:21.907Z,71.80
2018-06-09T02:34:50.808Z,72.57
2018-06-09T02:37:19.769Z,72.61
2018-06-09T02:39:48.650Z,72.58
2018-06-09T02:42:17.566Z,72.52
2018-06-09T02:44:46.489Z,72.20
2018-06-09T02:47:15.400Z,71.98
2018-06-09T02:49:44.416Z,72.17
2018-06-09T02:52:13.341Z,72.27
2018-06-09T02:54:50.041Z,72.40
2018-06-09T02:57:20.597Z,72.93
2018-06-09T02:59:49.517Z,72.80
2018-06-09T03:02:18.533Z,72.52
2018-06-09T03:04:47.450Z,72.89
2018-06-09T03:07:16.447Z,71.98
2018-06-09T03:09:45.402Z,72.51
2018-06-09T03:12:14.378Z,72.70
2018-06-09T03:14:43.327Z,72.73
2018-06-09T03:17:12.289Z,72.77
2018-06-09T03:19:41.294Z,72.56
2018-06-09T03:22:10.327Z,72.59
2018-06-09T03:24:39.400Z,72.64
2018-06-09T03:27:08.321Z,72.55
2018-06-09T03:29:37.207Z,72.86
2018-06-09T03:32:06.148Z,72.96
2018-06-09T03:34:34.974Z,73.18
2018-06-09T03:37:03.817Z,73.10
2018-06-09T03:39:32.728Z,73.23
2018-06-09T03:42:01.635Z,73.20
2018-06-09T03:44:30.606Z,73.31
2018-06-09T03:46:59.556Z,73.84
2018-06-09T03:49:28.490Z,73.51
2018-06-09T03:51:57.462Z,73.77
2018-06-09T03:54:26.363Z,73.96
2018-06-09T03:56:55.223Z,74.17
2018-06-09T03:59:24.123Z,73.70
2018-06-09T04:01:53.063Z,74.31
2018-06-09T04:04:21.951Z,74.33
2018-06-09T04:06:50.850Z,74.58
2018-06-09T04:09:19.832Z,74.22
2018-06-09T04:11:48.781Z,73.95
2018-06-09T04:14:17.624Z,74.55
2018-06-09T04:16:50.293Z,74.87
2018-06-09T04:19:19.145Z,74.89
2018-06-09T04:21:48.015Z,74.75
2018-06-09T04:24:16.904Z,74.95
2018-06-09T04:26:45.792Z,74.72
2018-06-09T04:29:14.668Z,74.71
2018-06-09T04:31:43.578Z,74.96
2018-06-09T04:34:12.473Z,74.84
2018-06-09T04:36:41.485Z,74.65
2018-06-09T04:39:11.751Z,74.54
2018-06-09T04:41:40.594Z,74.48
2018-06-09T04:44:09.470Z,74.50
2018-06-09T04:46:38.341Z,74.51
2018-06-09T04:49:07.207Z,74.28
2018-06-09T04:51:36.234Z,74.22
2018-06-09T04:54:05.365Z,74.47
2018-06-09T04:56:34.297Z,73.91
2018-06-09T04:59:03.153Z,73.53
2018-06-09T05:01:32.048Z,72.62
2018-06-09T05:04:01.016Z,73.16
2018-06-09T05:06:29.924Z,73.22
2018-06-09T05:08:58.894Z,72.97
2018-06-09T05:11:27.840Z,72.92
2018-06-09T05:13:56.745Z,72.57
2018-06-09T05:16:25.584Z,72.83
2018-06-09T05:18:54.517Z,72.47
2018-06-09T05:21:23.413Z,72.33
2018-06-09T05:23:52.258Z,72.43
2018-06-09T05:26:21.177Z,72.31
2018-06-09T05:28:50.107Z,72.56
2018-06-09T05:31:19.024Z,72.50
2018-06-09T05:33:47.887Z,71.34
2018-06-09T05:36:16.811Z,71.19
2018-06-09T05:38:45.699Z,70.87
2018-06-09T05:41:14.564Z,70.92
2018-06-09T05:43:43.407Z,70.54
2018-06-09T05:46:12.281Z,70.46
2018-06-09T05:48:41.172Z,69.91
2018-06-09T05:51:10.215Z,69.48
2018-06-09T05:53:39.148Z,69.21
2018-06-09T05:56:08.071Z,69.19
2018-06-09T05:58:36.970Z,69.04
2018-06-09T06:01:05.933Z,68.53
2018-06-09T06:03:34.805Z,68.45
2018-06-09T06:06:03.700Z,67.96
2018-06-09T06:08:32.612Z,67.76
2018-06-09T06:11:01.479Z,66.68
2018-06-09T06:13:30.338Z,65.62
2018-06-09T06:15:59.185Z,65.50
2018-06-09T06:18:28.051Z,65.23
2018-06-09T06:20:56.932Z,64.82
2018-06-09T06:23:25.797Z,63.84
2018-06-09T06:25:54.685Z,64.06
2018-06-09T06:28:23.631Z,64.29
2018-06-09T06:30:52.399Z,63.27
2018-06-09T06:33:21.293Z,63.94
2018-06-09T06:35:50.200Z,62.44
2018-06-09T06:38:19.063Z,60.88
2018-06-09T06:40:47.982Z,60.30
2018-06-09T06:43:16.887Z,60.37
2018-06-09T06:45:45.812Z,60.31
2018-06-09T06:48:14.710Z,59.55
2018-06-09T06:50:43.614Z,57.75
2018-06-09T06:53:12.485Z,57.77
2018-06-09T06:55:41.354Z,58.68
2018-06-09T06:58:10.256Z,58.69
2018-06-09T07:00:39.095Z,59.04
2018-06-09T07:03:07.986Z,57.43
2018-06-09T07:05:36.871Z,54.69
2018-06-09T07:08:05.768Z,50.11
2018-06-09T07:10:34.641Z,46.07
2018-06-09T07:13:03.550Z,43.62
2018-06-09T07:15:32.449Z,42.06
2018-06-09T07:18:01.310Z,41.65
2018-06-09T07:20:30.259Z,39.14
2018-06-09T07:22:59.192Z,39.67
2018-06-09T07:25:28.098Z,39.51
2018-06-09T07:27:56.999Z,40.34
2018-06-09T07:30:25.831Z,39.10
2018-06-09T07:32:54.696Z,38.29
2018-06-09T07:35:23.542Z,36.11
2018-06-09T07:37:52.424Z,35.89
2018-06-09T07:40:21.348Z,36.71
2018-06-09T07:42:50.246Z,37.04
2018-06-09T07:45:19.137Z,36.74
2018-06-09T07:47:48.054Z,37.47
2018-06-09T07:50:16.882Z,36.98
2018-06-09T07:52:45.792Z,36.77
2018-06-09T07:55:14.681Z,36.67
2018-06-09T07:57:43.535Z,39.48
2018-06-09T08:00:12.463Z,41.32
2018-06-09T08:02:41.331Z,42.07
2018-06-09T08:05:10.218Z,42.89
2018-06-09T08:07:39.060Z,42.79
2018-06-09T08:10:07.929Z,43.40
2018-06-09T08:12:36.789Z,43.25
2018-06-09T08:15:05.637Z,43.85
2018-06-09T08:17:34.494Z,43.90
2018-06-09T08:20:03.391Z,43.90
2018-06-09T08:22:32.281Z,43.34
2018-06-09T08:25:01.310Z,42.09
2018-06-09T08:27:30.126Z,38.81
2018-06-09T08:29:58.949Z,38.18
2018-06-09T08:32:27.843Z,38.23
2018-06-09T08:34:56.751Z,39.22
2018-06-09T08:37:25.615Z,38.81
2018-06-09T08:39:54.586Z,37.40
2018-06-09T08:42:23.478Z,34.46
2018-06-09T08:44:52.357Z,31.82
2018-06-09T08:47:21.199Z,31.25
2018-06-09T08:49:50.066Z,30.41
2018-06-09T08:52:18.990Z,29.93
2018-06-09T08:54:47.873Z,27.95
2018-06-09T08:57:16.758Z,26.46
2018-06-09T08:59:45.640Z,28.54
2018-06-09T09:02:14.571Z,27.32
2018-06-09T09:04:43.488Z,27.57
2018-06-09T09:07:12.479Z,27.55
2018-06-09T09:09:41.409Z,26.80
2018-06-09T09:12:10.259Z,27.54
2018-06-09T09:14:39.151Z,26.60
2018-06-09T09:17:08.010Z,26.10
2018-06-09T09:19:36.858Z,27.92
2018-06-09T09:22:06.079Z,28.21
2018-06-09T09:24:34.994Z,28.00
2018-06-09T09:27:03.878Z,27.76
2018-06-09T09:29:32.776Z,29.42
2018-06-09T09:32:01.752Z,28.49
2018-06-09T09:34:30.596Z,29.16
2018-06-09T09:36:59.466Z,29.21
2018-06-09T09:39:28.296Z,29.96
2018-06-09T09:41:57.182Z,32.73
2018-06-09T09:44:26.055Z,32.71
2018-06-09T09:46:54.950Z,33.43
2018-06-09T09:49:23.910Z,34.51
2018-06-09T09:51:52.744Z,32.95
2018-06-09T09:54:21.540Z,32.41
2018-06-09T09:56:50.490Z,31.54
2018-06-09T09:59:19.390Z,30.02
2018-06-09T10:01:48.211Z,29.82
2018-06-09T10:04:17.114Z,28.73
2018-06-09T10:06:45.986Z,29.92
2018-06-09T10:09:14.955Z,30.85
2018-06-09T10:11:43.778Z,29.84
2018-06-09T10:14:14.815Z,30.92
2018-06-09T10:16:43.682Z,29.60
2018-06-09T10:19:12.515Z,29.54
2018-06-09T10:21:41.435Z,28.44
2018-06-09T10:24:10.375Z,30.09
2018-06-09T10:26:39.904Z,26.84
2018-06-09T10:29:08.821Z,26.90
2018-06-09T10:31:37.746Z,27.58
2018-06-09T10:34:06.632Z,30.75
2018-06-09T10:36:35.538Z,28.32
2018-06-09T10:39:07.639Z,28.29
2018-06-09T10:41:36.924Z,26.61
2018-06-09T10:44:09.259Z,26.84
2018-06-09T10:46:38.703Z,27.16
2018-06-09T10:49:07.807Z,27.60
2018-06-09T10:51:36.810Z,27.39
2018-06-09T10:54:05.847Z,27.19
2018-06-09T10:56:34.930Z,27.90
2018-06-09T10:59:04.024Z,27.62
2018-06-09T11:01:33.152Z,28.22
2018-06-09T11:04:04.914Z,29.56
2018-06-09T11:06:34.488Z,28.98
2018-06-09T11:09:04.214Z,31.08
2018-06-09T11:11:33.350Z,30.69
2018-06-09T11:14:04.130Z,30.60
2018-06-09T11:16:45.811Z,30.59
2018-06-09T11:19:14.731Z,29.98
2018-06-09T11:21:43.607Z,31.52
2018-06-09T11:24:12.548Z,32.59
2018-06-09T11:26:41.487Z,32.86
2018-06-09T11:29:10.373Z,33.25
2018-06-09T11:31:39.313Z,32.91
2018-06-09T11:34:08.240Z,32.84
2018-06-09T11:36:37.042Z,32.10
2018-06-09T11:39:08.278Z,31.97
2018-06-09T11:41:37.439Z,30.36
2018-06-09T11:44:06.367Z,30.94
2018-06-09T11:46:35.363Z,30.11
2018-06-09T11:49:04.313Z,29.53
2018-06-09T11:51:33.208Z,29.65
2018-06-09T11:54:02.040Z,28.09
2018-06-09T11:56:30.979Z,27.61
2018-06-09T11:58:59.820Z,27.53
2018-06-09T12:01:28.766Z,28.89
2018-06-09T12:03:57.717Z,30.13
2018-06-09T12:06:26.598Z,32.05
2018-06-09T12:08:55.560Z,30.62
2018-06-09T12:11:24.480Z,30.92
2018-06-09T12:13:53.368Z,32.81
2018-06-09T12:16:22.214Z,33.05
2018-06-09T12:18:51.132Z,35.39
2018-06-09T12:21:20.028Z,34.77
2018-06-09T12:23:48.934Z,35.50
2018-06-09T12:26:17.914Z,35.16
2018-06-09T12:28:46.763Z,36.24
2018-06-09T12:31:15.622Z,36.66
2018-06-09T12:33:44.607Z,34.39
2018-06-09T12:36:13.574Z,35.76
2018-06-09T12:38:42.417Z,35.94
2018-06-09T12:41:13.156Z,36.98
2018-06-09T12:43:42.096Z,37.87
2018-06-09T12:46:10.993Z,37.49
2018-06-09T12:48:40.094Z,36.80
2018-06-09T12:51:08.990Z,37.84
2018-06-09T12:53:37.910Z,36.84
2018-06-09T12:56:06.813Z,38.53
2018-06-09T12:58:35.675Z,36.97
2018-06-09T13:01:04.681Z,37.69
2018-06-09T13:03:33.644Z,38.27
2018-06-09T13:06:02.607Z,37.86
2018-06-09T13:08:31.455Z,38.91
2018-06-09T13:11:00.519Z,37.82
2018-06-09T13:13:29.437Z,38.19
2018-06-09T13:15:58.414Z,37.88
2018-06-09T13:18:27.311Z,36.14
2018-06-09T13:20:56.245Z,38.09
2018-06-09T13:23:25.087Z,39.07
2018-06-09T13:25:54.347Z,38.64
2018-06-09T13:28:23.375Z,38.33
2018-06-09T13:30:52.259Z,38.17
2018-06-09T13:33:21.316Z,37.48
2018-06-09T13:35:50.294Z,37.37
2018-06-09T13:38:19.161Z,37.03
2018-06-09T13:40:48.137Z,38.80
2018-06-09T13:43:17.253Z,38.42
2018-06-09T13:45:46.378Z,38.40
2018-06-09T13:48:15.146Z,38.57
2018-06-09T13:50:44.050Z,38.46
2018-06-09T13:53:12.974Z,37.96
2018-06-09T13:55:41.963Z,36.72
2018-06-09T13:58:10.838Z,38.62
2018-06-09T14:00:39.813Z,39.04
2018-06-09T14:03:08.723Z,39.17
2018-06-09T14:05:37.636Z,38.70
2018-06-09T14:08:06.620Z,39.15
2018-06-09T14:10:35.482Z,37.12
2018-06-09T14:13:04.455Z,37.82
2018-06-09T14:15:33.461Z,38.21
2018-06-09T14:18:02.368Z,38.80
2018-06-09T14:20:31.273Z,39.90
2018-06-09T14:23:00.083Z,39.20
2018-06-09T14:25:29.028Z,37.71
2018-06-09T14:27:57.884Z,37.67
2018-06-09T14:30:26.864Z,36.83
2018-06-09T14:32:55.751Z,38.56
2018-06-09T14:35:24.689Z,37.31
2018-06-09T14:37:53.509Z,38.13
2018-06-09T14:40:22.412Z,38.33
2018-06-09T14:42:51.273Z,38.05
2018-06-09T14:45:20.269Z,38.57
2018-06-09T14:47:49.324Z,38.31
2018-06-09T14:50:18.180Z,37.89
2018-06-09T14:52:47.143Z,38.34
2018-06-09T14:55:15.985Z,36.91
2018-06-09T14:57:44.992Z,37.70
2018-06-09T15:00:13.822Z,37.71
2018-06-09T15:02:42.965Z,39.47
2018-06-09T15:05:12.136Z,41.08
2018-06-09T15:07:41.135Z,39.66
2018-06-09T15:10:10.224Z,40.46
2018-06-09T15:12:39.094Z,41.36
2018-06-09T15:15:08.012Z,40.59
2018-06-09T15:17:36.958Z,42.13
2018-06-09T15:20:06.074Z,42.38
2018-06-09T15:22:35.029Z,41.05
2018-06-09T15:25:03.943Z,41.08
2018-06-09T15:27:33.032Z,39.78
2018-06-09T15:30:01.988Z,39.93
2018-06-09T15:32:30.900Z,40.26
2018-06-09T15:34:59.848Z,40.49
2018-06-09T15:37:28.773Z,41.87
2018-06-09T15:39:57.688Z,41.96
2018-06-09T15:42:26.506Z,42.25
2018-06-09T15:44:55.479Z,42.14
2018-06-09T15:47:24.349Z,41.62
2018-06-09T15:49:53.275Z,41.63
2018-06-09T15:52:22.239Z,42.11
2018-06-09T15:54:54.429Z,41.34
2018-06-09T15:57:23.422Z,42.23
2018-06-09T15:59:52.534Z,42.87
2018-06-09T16:02:21.394Z,43.10
2018-06-09T16:04:50.298Z,43.94
2018-06-09T16:07:19.268Z,43.81
2018-06-09T16:09:48.108Z,44.68
2018-06-09T16:12:17.038Z,45.22
2018-06-09T16:14:45.997Z,45.81
2018-06-09T16:17:14.919Z,45.83
2018-06-09T16:19:43.862Z,46.24
2018-06-09T16:22:12.783Z,46.99
2018-06-09T16:24:41.697Z,46.87
2018-06-09T16:27:13.879Z,46.47
2018-06-09T16:29:42.839Z,45.99
2018-06-09T16:32:11.699Z,45.52
2018-06-09T16:34:40.662Z,45.44
2018-06-09T16:37:09.657Z,46.16
2018-06-09T16:39:38.637Z,47.02
2018-06-09T16:42:07.544Z,46.54
2018-06-09T16:44:36.553Z,46.34
2018-06-09T16:47:05.464Z,47.12
2018-06-09T16:49:34.431Z,47.36
2018-06-09T16:52:03.315Z,47.39
2018-06-09T16:54:32.307Z,48.04
2018-06-09T16:57:01.074Z,47.54
2018-06-09T16:59:30.095Z,47.60
2018-06-09T17:01:59.100Z,47.51
2018-06-09T17:04:27.983Z,47.66
2018-06-09T17:06:57.037Z,47.92
2018-06-09T17:09:26.018Z,47.16
2018-06-09T17:11:54.967Z,47.17
2018-06-09T17:14:23.905Z,47.16
2018-06-09T17:16:52.921Z,47.63
2018-06-09T17:19:21.963Z,47.94
2018-06-09T17:21:50.857Z,47.89
2018-06-09T17:24:19.740Z,48.23
2018-06-09T17:26:48.630Z,48.50
2018-06-09T17:29:17.568Z,48.88
2018-06-09T17:31:46.478Z,48.99
2018-06-09T17:34:15.401Z,48.24
2018-06-09T17:36:44.266Z,49.61
2018-06-09T17:39:13.158Z,49.43
2018-06-09T17:41:42.113Z,49.89
2018-06-09T17:44:11.048Z,50.35
2018-06-09T17:46:39.938Z,50.32
2018-06-09T17:49:08.898Z,50.36
2018-06-09T17:51:37.842Z,50.51
2018-06-09T17:54:06.715Z,51.02
2018-06-09T17:56:35.625Z,50.97
2018-06-09T17:59:06.072Z,51.21
2018-06-09T18:01:37.997Z,51.50
2018-06-09T18:04:06.823Z,50.52
2018-06-09T18:06:35.759Z,51.24
2018-06-09T18:09:07.309Z,51.55
2018-06-09T18:11:36.537Z,51.32
2018-06-09T18:14:05.487Z,51.16
2018-06-09T18:16:34.383Z,51.36
2018-06-09T18:19:05.927Z,51.62
2018-06-09T18:21:34.820Z,51.55
2018-06-09T18:24:03.703Z,51.69
2018-06-09T18:26:32.761Z,51.98
2018-06-09T18:29:01.636Z,52.34
2018-06-09T18:31:30.700Z,52.55
2018-06-09T18:33:59.616Z,52.67
2018-06-09T18:36:28.520Z,52.95
2018-06-09T18:38:57.324Z,53.29
2018-06-09T18:41:26.239Z,52.88
2018-06-09T18:43:55.152Z,52.66
2018-06-09T18:46:24.061Z,53.02
2018-06-09T18:48:52.917Z,53.17
2018-06-09T18:51:21.827Z,53.53
2018-06-09T18:53:50.742Z,53.78
2018-06-09T18:56:19.631Z,53.88
2018-06-09T18:58:48.550Z,54.17
2018-06-09T19:01:17.515Z,54.07
2018-06-09T19:03:46.437Z,54.25
2018-06-09T19:06:15.336Z,54.94
2018-06-09T19:08:44.239Z,54.99
2018-06-09T19:11:13.220Z,55.68
2018-06-09T19:13:42.046Z,55.76
2018-06-09T19:16:11.069Z,55.48
2018-06-09T19:18:39.926Z,55.73
2018-06-09T19:21:08.819Z,56.19
2018-06-09T19:23:37.849Z,56.05
2018-06-09T19:26:06.664Z,56.27
2018-06-09T19:28:35.519Z,56.44
2018-06-09T19:31:04.380Z,56.82
2018-06-09T19:33:33.297Z,56.84
2018-06-09T19:36:02.149Z,57.03
2018-06-09T19:38:31.015Z,57.32
2018-06-09T19:40:59.899Z,57.72
2018-06-09T19:43:28.929Z,58.36
2018-06-09T19:45:57.818Z,58.42
2018-06-09T19:48:26.720Z,58.51
2018-06-09T19:50:55.622Z,58.27
2018-06-09T19:53:24.526Z,58.71
2018-06-09T19:55:53.425Z,58.50
2018-06-09T19:58:22.279Z,59.03
2018-06-09T20:00:51.133Z,58.97
2018-06-09T20:03:20.192Z,58.91
2018-06-09T20:05:49.005Z,58.95
2018-06-09T20:08:18.017Z,58.88
2018-06-09T20:10:46.831Z,58.97
2018-06-09T20:13:15.687Z,59.09
2018-06-09T20:15:44.520Z,58.71
2018-06-09T20:18:13.387Z,58.46
2018-06-09T20:20:42.211Z,59.00
2018-06-09T20:23:11.094Z,58.50
2018-06-09T20:25:39.924Z,58.71
2018-06-09T20:28:08.758Z,58.67
2018-06-09T20:30:37.593Z,58.26
2018-06-09T20:33:06.556Z,58.19
2018-06-09T20:35:35.405Z,58.52
2018-06-09T20:38:04.243Z,58.58
2018-06-09T20:40:33.073Z,58.55
2018-06-09T20:43:01.897Z,58.50
2018-06-09T20:45:30.746Z,58.36
2018-06-09T20:47:59.614Z,58.33
2018-06-09T20:50:28.474Z,58.62
2018-06-09T20:52:57.305Z,58.47
2018-06-09T20:55:26.165Z,58.05
2018-06-09T20:57:54.976Z,58.32
2018-06-09T21:00:23.813Z,58.09
2018-06-09T21:02:52.636Z,58.25
2018-06-09T21:05:21.469Z,58.21
2018-06-09T21:07:50.288Z,58.25
2018-06-09T21:10:19.130Z,58.53
2018-06-09T21:12:48.021Z,58.32
2018-06-09T21:15:16.868Z,58.33
2018-06-09T21:17:45.727Z,58.76
2018-06-09T21:20:14.590Z,58.76
2018-06-09T21:22:43.446Z,59.07
2018-06-09T21:25:12.273Z,59.33
2018-06-09T21:27:59.046Z,59.36
2018-06-09T21:30:43.591Z,59.51
2018-06-09T21:34:06.035Z,59.78
2018-06-09T21:36:52.620Z,60.04
2018-06-09T21:39:38.984Z,60.54
2018-06-09T21:42:26.056Z,60.47
2018-06-09T21:45:11.660Z,60.78
2018-06-09T21:47:40.490Z,60.74
2018-06-09T21:50:09.348Z,60.61
2018-06-09T21:52:38.207Z,60.78
2018-06-09T21:55:07.066Z,60.54
2018-06-09T21:57:35.897Z,60.75
2018-06-09T22:00:07.161Z,60.55
2018-06-09T22:02:36.021Z,60.42
2018-06-09T22:05:04.870Z,60.40
2018-06-09T22:07:33.748Z,60.47
2018-06-09T22:10:02.558Z,60.61
2018-06-09T22:12:31.421Z,60.32
2018-06-09T22:15:00.240Z,60.38
2018-06-09T22:17:29.088Z,60.37
2018-06-09T22:19:57.993Z,60.76
2018-06-09T22:22:26.796Z,60.99
2018-06-09T22:24:55.652Z,61.27
2018-06-09T22:27:24.518Z,61.53
2018-06-09T22:29:53.346Z,61.04
2018-06-09T22:32:22.200Z,61.67
2018-06-09T22:34:51.026Z,61.68
2018-06-09T22:37:19.988Z,61.83
2018-06-09T22:39:48.793Z,61.64
2018-06-09T22:42:17.666Z,61.62
2018-06-09T22:44:46.515Z,61.55
2018-06-09T22:47:15.357Z,61.75
2018-06-09T22:49:44.207Z,61.95
2018-06-09T22:52:13.055Z,61.99
2018-06-09T22:54:41.944Z,62.09
2018-06-09T22:57:10.820Z,62.45
2018-06-09T22:59:39.694Z,62.42
2018-06-09T23:02:08.528Z,62.92
2018-06-09T23:04:37.398Z,63.04
2018-06-09T23:07:07.342Z,63.14
2018-06-09T23:09:36.206Z,63.32
2018-06-09T23:12:05.048Z,63.97
2018-06-09T23:14:33.882Z,63.97
2018-06-09T23:17:02.756Z,63.82
2018-06-09T23:19:31.569Z,64.21
2018-06-09T23:22:00.436Z,64.40
2018-06-09T23:24:29.264Z,64.74
2018-06-09T23:26:58.128Z,64.88
2018-06-09T23:29:27.005Z,65.33
2018-06-09T23:31:55.837Z,65.32
2018-06-09T23:34:24.700Z,65.29
2018-06-09T23:36:53.562Z,65.60
2018-06-09T23:39:22.401Z,65.89
2018-06-09T23:41:51.262Z,66.11
2018-06-09T23:44:20.110Z,66.22
2018-06-09T23:46:48.943Z,66.26
2018-06-09T23:49:17.798Z,66.37
2018-06-09T23:51:46.621Z,66.61
2018-06-09T23:54:15.474Z,66.68
2018-06-09T23:56:44.335Z,67.07
2018-06-09T23:59:13.156Z,67.14
